Time;durP1;ratioP1;P1;durP2;ratioP2;P2;SDS_P1;SDS_P2;PMS_P1;PMS_P2;Temp;Humidity;BMP_temperature;BMP_pressure;BME280_temperature;BME280_humidity;BME280_pressure;Samples;Min_cycle;Max_cycle;Signal;HPM_P1;HPM_P2
2021/03/24 00:00:18;;;;;;;40.07;17.73;;;5.10;75.90;;;;;;4989880;28;20474;-43
2021/03/24 00:02:45;;;;;;;36.03;19.67;;;5.10;75.90;;;;;;4991001;28;20497;-44
2021/03/24 00:05:14;;;;;;;40.33;18.83;;;5.00;75.90;;;;;;4989990;28;20535;-42
2021/03/24 00:07:41;;;;;;;33.57;18.70;;;5.00;75.90;;;;;;4991972;28;20458;-42
2021/03/24 00:10:09;;;;;;;35.80;19.10;;;5.00;75.90;;;;;;4992224;28;20449;-41
2021/03/24 00:12:37;;;;;;;42.20;22.77;;;5.00;76.10;;;;;;5004208;28;20548;-42
2021/03/24 00:15:05;;;;;;;37.73;20.50;;;4.90;76.10;;;;;;4990543;28;20469;-44
2021/03/24 00:17:32;;;;;;;40.50;20.20;;;4.90;76.20;;;;;;4991061;28;20469;-42
2021/03/24 00:19:58;;;;;;;45.30;20.90;;;4.90;76.30;;;;;;5005249;28;20464;-41
2021/03/24 00:22:24;;;;;;;41.03;20.87;;;4.80;76.30;;;;;;5006896;28;20481;-41
2021/03/24 00:24:50;;;;;;;36.67;20.30;;;4.80;76.30;;;;;;5002832;28;20445;-43
2021/03/24 00:27:17;;;;;;;33.50;18.33;;;4.80;76.30;;;;;;4990893;28;20458;-42
2021/03/24 00:29:43;;;;;;;41.03;21.73;;;4.70;76.40;;;;;;4992007;28;20492;-42
2021/03/24 00:32:10;;;;;;;39.03;20.60;;;4.80;76.40;;;;;;5002765;28;20465;-42
2021/03/24 00:34:37;;;;;;;42.90;21.67;;;4.80;76.30;;;;;;4988128;28;20829;-42
2021/03/24 00:37:03;;;;;;;41.57;22.17;;;4.70;76.30;;;;;;4989415;28;20457;-42
2021/03/24 00:39:30;;;;;;;45.47;23.40;;;4.70;76.30;;;;;;4988655;28;20536;-42
2021/03/24 00:41:56;;;;;;;50.00;25.20;;;4.60;76.30;;;;;;4990594;28;20492;-41
2021/03/24 00:44:23;;;;;;;46.03;23.70;;;4.60;76.30;;;;;;4990088;28;20478;-42
2021/03/24 00:46:49;;;;;;;43.70;23.20;;;4.60;76.20;;;;;;4988673;28;20493;-42
2021/03/24 00:49:16;;;;;;;46.10;22.37;;;4.60;76.10;;;;;;5001176;28;20479;-43
2021/03/24 00:51:42;;;;;;;40.93;20.27;;;4.50;76.10;;;;;;4989728;28;20455;-43
2021/03/24 00:54:09;;;;;;;37.33;17.93;;;4.50;76.00;;;;;;4987706;28;20467;-41
2021/03/24 00:56:35;;;;;;;35.50;19.30;;;4.40;76.10;;;;;;4991504;28;21196;-41
2021/03/24 00:59:01;;;;;;;36.03;18.70;;;4.40;76.00;;;;;;5002909;28;20468;-44
2021/03/24 01:01:27;;;;;;;36.07;17.70;;;4.40;76.00;;;;;;4989228;28;20854;-43
2021/03/24 01:03:53;;;;;;;29.63;17.30;;;4.40;75.80;;;;;;4989911;28;20508;-44
2021/03/24 01:06:20;;;;;;;34.30;16.80;;;4.30;75.60;;;;;;4990098;28;20480;-41
2021/03/24 01:08:47;;;;;;;40.33;18.03;;;4.30;75.60;;;;;;4991705;28;20459;-45
2021/03/24 01:11:13;;;;;;;33.87;17.13;;;4.20;75.80;;;;;;4990000;28;20638;-45
2021/03/24 01:13:39;;;;;;;31.67;19.07;;;4.20;75.80;;;;;;4989816;28;20493;-45
2021/03/24 01:16:07;;;;;;;30.67;15.33;;;4.20;75.90;;;;;;5003334;28;20453;-43
2021/03/24 01:18:33;;;;;;;32.10;16.70;;;4.10;76.00;;;;;;4990721;28;20456;-45
2021/03/24 01:21:00;;;;;;;34.30;16.83;;;4.10;76.10;;;;;;4987423;28;20462;-45
2021/03/24 01:23:26;;;;;;;28.60;17.40;;;4.10;76.20;;;;;;4989328;28;21076;-44
2021/03/24 01:25:52;;;;;;;35.63;16.63;;;4.00;76.40;;;;;;4987590;28;20467;-45
2021/03/24 01:28:21;;;;;;;40.20;17.67;;;4.00;76.40;;;;;;4985836;28;20465;-44
2021/03/24 01:30:48;;;;;;;32.13;17.27;;;4.00;76.60;;;;;;4987713;28;20473;-45
2021/03/24 01:33:15;;;;;;;32.13;17.60;;;4.00;76.80;;;;;;4985746;28;20517;-45
2021/03/24 01:35:42;;;;;;;39.37;17.87;;;4.00;76.90;;;;;;4989355;28;20461;-44
2021/03/24 01:38:08;;;;;;;33.37;15.87;;;3.90;76.90;;;;;;4987669;28;20457;-44
2021/03/24 01:40:48;;;;;;;35.73;18.20;;;3.90;77.00;;;;;;5003435;28;20454;-43
2021/03/24 01:43:25;;;;;;;32.57;16.30;;;3.90;77.10;;;;;;4986935;28;21077;-44
2021/03/24 01:46:19;;;;;;;37.93;17.90;;;3.90;77.20;;;;;;5003545;28;20467;-41
2021/03/24 01:49:00;;;;;;;37.40;19.07;;;3.90;77.30;;;;;;4986467;28;20795;-41
2021/03/24 01:51:42;;;;;;;39.47;18.70;;;3.80;77.40;;;;;;4987019;28;20506;-43
2021/03/24 01:54:13;;;;;;;40.00;18.43;;;3.80;77.40;;;;;;4999183;28;20457;-42
2021/03/24 01:56:41;;;;;;;34.17;17.80;;;3.80;77.50;;;;;;4986169;28;20977;-41
2021/03/24 01:59:09;;;;;;;39.23;19.67;;;3.80;77.60;;;;;;5001531;28;20465;-43
2021/03/24 02:01:36;;;;;;;46.87;20.10;;;3.80;77.70;;;;;;4988768;28;20457;-41
2021/03/24 02:04:02;;;;;;;35.70;18.00;;;3.80;77.80;;;;;;4986395;28;20467;-42
2021/03/24 02:06:51;;;;;;;33.83;17.97;;;3.70;77.80;;;;;;5003026;28;20453;-44
2021/03/24 02:09:31;;;;;;;32.50;18.67;;;3.80;78.00;;;;;;4989586;28;20448;-41
2021/03/24 02:12:11;;;;;;;31.63;18.37;;;3.80;78.00;;;;;;4989104;28;20453;-41
2021/03/24 02:15:04;;;;;;;34.27;17.47;;;3.80;78.00;;;;;;4981649;28;20851;-41
2021/03/24 02:17:36;;;;;;;41.40;20.90;;;3.80;77.80;;;;;;4987403;28;20504;-46
2021/03/24 02:20:03;;;;;;;32.10;17.70;;;3.80;77.70;;;;;;4999559;28;20804;-43
2021/03/24 02:22:36;;;;;;;36.33;18.77;;;3.70;77.60;;;;;;4987028;28;20959;-43
2021/03/24 02:25:27;;;;;;;33.33;18.13;;;3.70;77.60;;;;;;4985535;28;20978;-42
2021/03/24 02:27:57;;;;;;;30.83;17.70;;;3.70;77.60;;;;;;5001744;28;20468;-42
2021/03/24 02:30:31;;;;;;;32.90;16.17;;;3.60;77.60;;;;;;4989908;28;20820;-44
2021/03/24 02:33:03;;;;;;;34.47;17.93;;;3.60;77.70;;;;;;4987197;28;20488;-44
2021/03/24 02:35:35;;;;;;;34.70;16.80;;;3.60;77.80;;;;;;4985117;28;20476;-43
2021/03/24 02:38:06;;;;;;;31.20;17.67;;;3.50;77.70;;;;;;4999989;28;20553;-43
2021/03/24 02:40:34;;;;;;;39.83;20.10;;;3.50;77.70;;;;;;5000626;28;21357;-42
2021/03/24 02:43:03;;;;;;;27.83;16.60;;;3.50;77.80;;;;;;4986114;28;21037;-43
2021/03/24 02:45:34;;;;;;;36.50;16.57;;;3.40;77.80;;;;;;4984772;28;20458;-43
2021/03/24 02:48:04;;;;;;;36.30;17.87;;;3.40;77.90;;;;;;4984882;28;20557;-44
2021/03/24 02:50:33;;;;;;;34.50;17.07;;;3.40;78.00;;;;;;4985516;28;20493;-42
2021/03/24 02:53:00;;;;;;;36.97;18.60;;;3.40;78.00;;;;;;4985106;28;20475;-43
2021/03/24 02:55:29;;;;;;;36.33;16.60;;;3.40;78.10;;;;;;5003232;28;20464;-42
2021/03/24 02:57:56;;;;;;;33.40;18.17;;;3.40;78.20;;;;;;4987826;28;20459;-42
2021/03/24 03:00:24;;;;;;;34.53;16.80;;;3.40;78.30;;;;;;4986908;28;20735;-43
2021/03/24 03:03:01;;;;;;;33.97;17.37;;;3.40;78.30;;;;;;4986800;28;20488;-43
2021/03/24 03:05:34;;;;;;;28.23;16.90;;;3.30;78.40;;;;;;4987081;28;20456;-43
2021/03/24 03:08:12;;;;;;;38.63;18.97;;;3.30;78.40;;;;;;5003192;28;21029;-42
2021/03/24 03:10:54;;;;;;;33.57;16.63;;;3.30;78.40;;;;;;4998792;28;20531;-43
2021/03/24 03:13:32;;;;;;;34.53;16.30;;;3.30;78.50;;;;;;4984815;28;20831;-43
2021/03/24 03:16:36;;;;;;;35.40;16.77;;;3.20;78.60;;;;;;4986894;28;20835;-43
2021/03/24 03:19:10;;;;;;;38.07;17.73;;;3.20;78.70;;;;;;4984701;28;20508;-43
2021/03/24 03:21:50;;;;;;;34.73;17.53;;;3.30;78.90;;;;;;4985195;28;20660;-43
2021/03/24 03:24:34;;;;;;;33.10;18.00;;;3.20;78.90;;;;;;4999242;28;20465;-43
2021/03/24 03:27:03;;;;;;;45.33;18.43;;;3.20;79.00;;;;;;4984763;28;20457;-44
2021/03/24 03:29:30;;;;;;;37.00;18.17;;;3.20;79.00;;;;;;4985164;28;20465;-42
2021/03/24 03:31:58;;;;;;;43.00;18.53;;;3.20;79.00;;;;;;4986253;28;20821;-43
2021/03/24 03:34:27;;;;;;;36.70;19.43;;;3.20;79.10;;;;;;4986462;28;20941;-42
2021/03/24 03:36:55;;;;;;;31.90;17.70;;;3.10;79.10;;;;;;4985431;28;20551;-42
2021/03/24 03:39:26;;;;;;;39.97;18.67;;;3.10;79.10;;;;;;4999950;28;20819;-44
2021/03/24 03:41:54;;;;;;;27.83;19.70;;;3.10;79.10;;;;;;4985942;28;20492;-41
2021/03/24 03:44:21;;;;;;;36.77;16.73;;;3.10;79.20;;;;;;5001085;28;20489;-43
2021/03/24 03:46:54;;;;;;;36.63;18.37;;;3.10;79.30;;;;;;4986577;28;20829;-43
2021/03/24 03:49:22;;;;;;;33.40;17.37;;;3.10;79.30;;;;;;4985943;28;20485;-44
2021/03/24 03:52:33;;;;;;;33.07;19.23;;;3.10;79.30;;;;;;4989718;28;21045;-44
2021/03/24 03:55:08;;;;;;;29.00;16.83;;;3.10;79.30;;;;;;4984524;28;20472;-44
2021/03/24 03:57:46;;;;;;;37.47;18.07;;;3.10;79.40;;;;;;4987945;28;20966;-42
2021/03/24 04:00:23;;;;;;;36.93;18.03;;;3.10;79.40;;;;;;4986978;28;20469;-44
2021/03/24 04:02:58;;;;;;;28.40;17.00;;;3.10;79.50;;;;;;4987142;28;20485;-44
2021/03/24 04:05:35;;;;;;;37.33;19.03;;;3.10;79.50;;;;;;4985519;28;20981;-46
2021/03/24 04:08:08;;;;;;;34.23;18.30;;;3.00;79.50;;;;;;4986603;28;20952;-44
2021/03/24 04:10:38;;;;;;;38.50;18.97;;;3.00;79.60;;;;;;5001205;28;20461;-45
2021/03/24 04:13:07;;;;;;;34.77;17.77;;;3.00;79.60;;;;;;4985578;28;20458;-45
2021/03/24 04:15:33;;;;;;;39.93;18.63;;;3.00;79.60;;;;;;4982815;28;20465;-44
2021/03/24 04:18:14;;;;;;;32.80;17.40;;;3.00;79.60;;;;;;4981941;28;20480;-45
2021/03/24 04:20:43;;;;;;;37.40;17.00;;;3.00;79.60;;;;;;4984496;28;20468;-45
2021/03/24 04:23:15;;;;;;;33.50;16.80;;;3.00;79.50;;;;;;4988444;28;20486;-45
2021/03/24 04:26:14;;;;;;;29.90;17.70;;;3.00;79.50;;;;;;4990465;28;20454;-46
2021/03/24 04:28:44;;;;;;;33.33;16.40;;;3.00;79.50;;;;;;4991634;28;20504;-44
2021/03/24 04:31:13;;;;;;;34.53;18.20;;;2.90;79.60;;;;;;4990463;28;20552;-45
2021/03/24 04:33:40;;;;;;;33.67;20.27;;;2.90;79.60;;;;;;4988236;28;20467;-44
2021/03/24 04:36:14;;;;;;;36.00;18.90;;;2.90;79.40;;;;;;4986334;28;21185;-45
2021/03/24 04:38:46;;;;;;;33.57;17.30;;;2.90;79.40;;;;;;4989384;28;20461;-44
2021/03/24 04:41:20;;;;;;;36.37;17.90;;;2.90;79.30;;;;;;5001285;28;20465;-44
2021/03/24 04:43:51;;;;;;;38.17;19.93;;;2.90;79.30;;;;;;5008856;28;20488;-45
2021/03/24 04:46:25;;;;;;;33.10;17.97;;;2.90;79.30;;;;;;4989271;28;20458;-45
2021/03/24 04:49:00;;;;;;;42.00;17.57;;;2.80;79.40;;;;;;5005339;28;20454;-44
2021/03/24 04:51:31;;;;;;;34.20;17.53;;;2.80;79.60;;;;;;4990575;28;20459;-45
2021/03/24 04:54:18;;;;;;;40.50;18.60;;;2.80;79.60;;;;;;5004991;28;20476;-43
2021/03/24 04:56:49;;;;;;;35.47;18.37;;;2.80;79.60;;;;;;5004115;28;20473;-43
2021/03/24 04:59:48;;;;;;;34.63;19.20;;;2.80;79.70;;;;;;5006703;28;20470;-45
2021/03/24 05:02:22;;;;;;;40.00;18.53;;;2.70;79.70;;;;;;4987500;28;20821;-45
2021/03/24 05:04:57;;;;;;;45.37;20.10;;;2.70;79.70;;;;;;4989560;28;20461;-45
2021/03/24 05:07:48;;;;;;;34.07;17.20;;;2.70;79.80;;;;;;4989968;28;20459;-44
2021/03/24 05:10:20;;;;;;;31.80;16.80;;;2.70;79.80;;;;;;4989891;28;20462;-44
2021/03/24 05:12:58;;;;;;;32.27;18.40;;;2.70;79.80;;;;;;4990400;28;20466;-45
2021/03/24 05:15:29;;;;;;;37.37;18.63;;;2.70;79.90;;;;;;4999904;28;20465;-44
2021/03/24 05:17:56;;;;;;;37.73;18.87;;;2.70;79.90;;;;;;4991911;28;20831;-45
2021/03/24 05:20:37;;;;;;;27.23;16.33;;;2.70;79.90;;;;;;4986793;28;20465;-44
2021/03/24 05:23:09;;;;;;;38.00;19.00;;;2.70;79.90;;;;;;4999661;28;20493;-45
2021/03/24 05:26:05;;;;;;;33.37;18.60;;;2.70;80.00;;;;;;4992448;28;20977;-45
2021/03/24 05:28:38;;;;;;;32.23;17.53;;;2.70;80.00;;;;;;4989046;28;20450;-44
2021/03/24 05:31:08;;;;;;;33.07;18.80;;;2.70;80.00;;;;;;4986291;28;20823;-44
2021/03/24 05:33:42;;;;;;;34.17;18.60;;;2.70;80.10;;;;;;4989292;28;21044;-44
2021/03/24 05:36:44;;;;;;;38.20;17.80;;;2.70;80.00;;;;;;4999905;28;20993;-44
2021/03/24 05:39:27;;;;;;;36.07;18.60;;;2.70;80.00;;;;;;4971258;28;20473;-45
2021/03/24 05:41:53;;;;;;;40.37;18.90;;;2.70;80.00;;;;;;4999238;28;20984;-45
2021/03/24 05:44:45;;;;;;;32.03;17.07;;;2.70;79.90;;;;;;4987628;28;20456;-45
2021/03/24 05:47:21;;;;;;;41.27;21.60;;;2.70;80.00;;;;;;4989280;28;20464;-44
2021/03/24 05:49:53;;;;;;;36.27;18.17;;;2.70;80.00;;;;;;4989862;28;20461;-44
2021/03/24 05:52:41;;;;;;;45.10;21.37;;;2.70;80.10;;;;;;5003808;28;20463;-43
2021/03/24 05:55:25;;;;;;;39.37;19.90;;;2.70;80.10;;;;;;4985328;28;20458;-43
2021/03/24 05:58:16;;;;;;;34.53;19.37;;;2.70;80.30;;;;;;4982575;28;20471;-43
2021/03/24 06:00:58;;;;;;;40.53;20.87;;;2.70;80.30;;;;;;5001956;28;20465;-45
2021/03/24 06:03:53;;;;;;;40.07;20.30;;;2.70;80.40;;;;;;4986284;28;20491;-44
2021/03/24 06:06:47;;;;;;;34.83;18.27;;;2.70;80.50;;;;;;5003902;28;20469;-44
2021/03/24 06:09:43;;;;;;;35.67;20.70;;;2.70;80.60;;;;;;4988097;28;20910;-43
2021/03/24 06:12:36;;;;;;;36.90;19.40;;;2.80;80.60;;;;;;5001812;28;20491;-44
2021/03/24 06:15:06;;;;;;;42.77;21.63;;;2.80;80.70;;;;;;5001331;28;20782;-44
2021/03/24 06:17:41;;;;;;;41.40;21.00;;;2.80;80.80;;;;;;4987571;28;20473;-45
2021/03/24 06:20:36;;;;;;;43.47;19.90;;;2.80;80.80;;;;;;4987562;28;20459;-44
2021/03/24 06:23:39;;;;;;;37.03;19.97;;;2.90;80.90;;;;;;4988688;28;20485;-44
2021/03/24 06:26:24;;;;;;;37.90;19.10;;;2.90;80.90;;;;;;4988464;28;20461;-45
2021/03/24 06:29:04;;;;;;;40.80;21.00;;;3.00;80.90;;;;;;4997382;28;20463;-44
2021/03/24 06:31:57;;;;;;;43.13;22.50;;;3.00;81.00;;;;;;4985945;28;20475;-44
2021/03/24 06:34:48;;;;;;;44.83;20.33;;;3.00;81.00;;;;;;4985947;28;20713;-43
2021/03/24 06:37:20;;;;;;;33.77;20.57;;;3.10;81.10;;;;;;4984770;28;20493;-45
2021/03/24 06:39:55;;;;;;;41.87;20.90;;;3.20;81.10;;;;;;5001494;28;20544;-44
2021/03/24 06:42:27;;;;;;;37.40;20.00;;;3.20;81.00;;;;;;5003103;28;20501;-46
2021/03/24 06:45:25;;;;;;;39.80;21.00;;;3.30;81.10;;;;;;4987617;28;21041;-44
2021/03/24 06:48:03;;;;;;;36.67;19.73;;;3.40;81.10;;;;;;4989278;28;20552;-44
2021/03/24 06:51:06;;;;;;;40.43;22.03;;;3.50;81.10;;;;;;4991552;28;20457;-44
2021/03/24 06:54:07;;;;;;;37.43;19.20;;;3.50;81.20;;;;;;4988998;28;21023;-43
2021/03/24 06:56:47;;;;;;;43.97;22.43;;;3.60;81.30;;;;;;4986112;28;20561;-44
2021/03/24 06:59:24;;;;;;;41.77;22.10;;;3.60;81.30;;;;;;4992435;28;20449;-45
2021/03/24 07:02:29;;;;;;;39.50;20.73;;;3.70;81.30;;;;;;4991607;28;20456;-45
2021/03/24 07:05:02;;;;;;;40.83;19.70;;;3.80;81.10;;;;;;4988803;28;20460;-44
2021/03/24 07:07:42;;;;;;;42.47;20.20;;;3.90;80.80;;;;;;5008009;28;20447;-44
2021/03/24 07:10:41;;;;;;;39.20;20.37;;;3.90;80.80;;;;;;4990695;28;20472;-44
2021/03/24 07:13:37;;;;;;;39.50;21.27;;;4.00;80.90;;;;;;4986504;28;20473;-44
2021/03/24 07:16:22;;;;;;;36.53;20.90;;;4.10;80.90;;;;;;4989426;28;20461;-44
2021/03/24 07:19:14;;;;;;;35.57;20.97;;;4.20;80.90;;;;;;4986969;28;20477;-45
2021/03/24 07:21:58;;;;;;;42.07;21.37;;;4.30;80.70;;;;;;5003057;28;20466;-44
2021/03/24 07:24:52;;;;;;;37.67;20.13;;;4.40;80.40;;;;;;5001532;28;20539;-45
2021/03/24 07:28:23;;;;;;;37.03;20.53;;;4.50;80.20;;;;;;4988113;28;21061;-44
2021/03/24 07:30:52;;;;;;;42.50;21.67;;;4.60;80.30;;;;;;4949841;29;20833;-46
2021/03/24 07:33:35;;;;;;;38.40;21.40;;;4.60;80.20;;;;;;4990581;28;20921;-44
2021/03/24 07:36:24;;;;;;;37.97;21.40;;;4.70;80.20;;;;;;5004242;28;20548;-44
2021/03/24 07:39:24;;;;;;;39.77;21.83;;;4.80;80.20;;;;;;4990367;28;20476;-44
2021/03/24 07:42:14;;;;;;;46.17;24.97;;;5.00;79.90;;;;;;4985388;28;20519;-44
2021/03/24 07:45:24;;;;;;;41.60;22.30;;;5.20;79.10;;;;;;4987807;28;20873;-44
2021/03/24 07:47:58;;;;;;;40.60;23.40;;;5.40;79.00;;;;;;4993590;28;20713;-43
2021/03/24 07:50:40;;;;;;;40.30;22.93;;;5.50;78.70;;;;;;4986166;28;20460;-44
2021/03/24 07:53:37;;;;;;;44.93;23.17;;;5.70;78.10;;;;;;4983780;28;20449;-43
2021/03/24 07:56:13;;;;;;;44.07;23.27;;;5.90;77.70;;;;;;4987541;28;20877;-42
2021/03/24 07:59:02;;;;;;;42.67;22.53;;;6.20;77.10;;;;;;5000731;28;20461;-44
2021/03/24 08:01:49;;;;;;;46.90;24.90;;;6.40;76.60;;;;;;4990392;28;21040;-43
2021/03/24 08:04:27;;;;;;;41.77;22.97;;;6.60;76.00;;;;;;4990609;28;21020;-43
2021/03/24 08:07:18;;;;;;;49.50;23.97;;;6.90;75.30;;;;;;4992788;28;20458;-43
2021/03/24 08:10:22;;;;;;;49.30;24.43;;;7.20;74.30;;;;;;4990814;28;20465;-43
2021/03/24 08:12:57;;;;;;;51.50;25.03;;;7.40;73.30;;;;;;4992055;28;20840;-43
2021/03/24 08:16:02;;;;;;;45.63;24.77;;;7.70;72.40;;;;;;5002294;28;20511;-43
2021/03/24 08:18:34;;;;;;;44.13;23.80;;;7.90;71.10;;;;;;4967687;28;20549;-45
2021/03/24 08:21:19;;;;;;;44.90;22.90;;;8.10;70.70;;;;;;4984853;28;20516;-43
2021/03/24 08:24:13;;;;;;;42.07;23.13;;;8.40;70.40;;;;;;4993874;28;20485;-44
2021/03/24 08:26:47;;;;;;;46.07;22.60;;;8.60;69.10;;;;;;4989298;28;20962;-45
2021/03/24 08:29:28;;;;;;;42.30;22.43;;;8.80;67.70;;;;;;4988767;28;20467;-44
2021/03/24 08:32:28;;;;;;;42.60;21.60;;;9.00;67.30;;;;;;4989115;28;20536;-45
2021/03/24 08:35:09;;;;;;;38.13;21.23;;;9.20;66.90;;;;;;4986852;28;20461;-45
2021/03/24 08:38:02;;;;;;;39.27;20.17;;;9.40;66.10;;;;;;4987422;28;20462;-44
2021/03/24 08:40:44;;;;;;;36.13;21.20;;;9.50;65.20;;;;;;4988121;28;20473;-44
2021/03/24 08:43:29;;;;;;;39.77;22.80;;;9.70;64.90;;;;;;4989833;28;20531;-43
2021/03/24 08:46:21;;;;;;;42.03;22.37;;;9.90;64.70;;;;;;4987718;28;20552;-43
2021/03/24 08:48:55;;;;;;;43.37;22.80;;;10.20;63.30;;;;;;4990018;28;20465;-44
2021/03/24 08:51:54;;;;;;;42.10;25.27;;;10.20;63.30;;;;;;4989244;28;20463;-44
2021/03/24 08:54:35;;;;;;;42.17;23.10;;;10.30;63.40;;;;;;4990808;28;20458;-44
2021/03/24 08:57:29;;;;;;;39.27;22.60;;;10.40;63.20;;;;;;4988705;28;20500;-44
2021/03/24 09:00:16;;;;;;;43.87;23.00;;;10.50;62.70;;;;;;4988330;28;20488;-44
2021/03/24 09:03:12;;;;;;;35.80;23.27;;;10.60;62.90;;;;;;4987614;28;21329;-43
2021/03/24 09:05:51;;;;;;;42.57;24.30;;;10.90;62.80;;;;;;4987496;28;20461;-43
2021/03/24 09:08:42;;;;;;;36.33;22.40;;;11.20;62.40;;;;;;5003354;28;20466;-44
2021/03/24 09:11:45;;;;;;;37.33;23.37;;;11.60;61.60;;;;;;4986458;28;20543;-43
2021/03/24 09:14:27;;;;;;;38.70;21.37;;;12.00;60.60;;;;;;5004500;28;20487;-44
2021/03/24 09:17:08;;;;;;;37.27;23.17;;;12.30;59.10;;;;;;4988836;28;20571;-45
2021/03/24 09:19:56;;;;;;;39.23;23.03;;;12.50;58.60;;;;;;4987887;28;20474;-46
2021/03/24 09:22:43;;;;;;;37.20;21.77;;;12.80;57.60;;;;;;4985842;28;20580;-43
2021/03/24 09:25:48;;;;;;;36.30;22.20;;;13.10;56.10;;;;;;5002306;28;20477;-45
2021/03/24 09:28:50;;;;;;;33.70;22.20;;;13.20;56.40;;;;;;5001157;28;20484;-45
2021/03/24 09:31:47;;;;;;;37.80;23.90;;;13.40;56.40;;;;;;4985630;28;20501;-45
2021/03/24 09:34:35;;;;;;;29.53;20.43;;;13.50;56.40;;;;;;4987194;28;20465;-43
2021/03/24 09:37:05;;;;;;;31.93;19.53;;;13.70;56.30;;;;;;4987922;28;20480;-44
2021/03/24 09:39:48;;;;;;;31.17;20.03;;;13.70;55.20;;;;;;4985839;28;20827;-44
2021/03/24 09:42:34;;;;;;;28.27;18.17;;;13.90;53.80;;;;;;5002283;28;20456;-45
2021/03/24 09:45:14;;;;;;;30.90;19.50;;;14.00;53.10;;;;;;4989153;28;20584;-43
2021/03/24 09:47:49;;;;;;;30.40;18.70;;;14.00;53.70;;;;;;4987411;28;20445;-44
2021/03/24 09:50:22;;;;;;;34.43;21.30;;;14.20;53.50;;;;;;4989048;28;20466;-44
2021/03/24 09:53:10;;;;;;;33.00;20.57;;;14.40;53.50;;;;;;4988311;28;20690;-44
2021/03/24 09:55:44;;;;;;;35.87;21.00;;;14.60;53.20;;;;;;4986831;28;20632;-45
2021/03/24 09:58:28;;;;;;;30.77;21.33;;;15.00;52.80;;;;;;4989142;28;20445;-44
2021/03/24 10:01:08;;;;;;;29.63;21.10;;;15.30;51.70;;;;;;5004430;28;20448;-44
2021/03/24 10:04:00;;;;;;;26.70;18.90;;;15.50;51.30;;;;;;4987253;28;20483;-44
2021/03/24 10:06:48;;;;;;;29.13;20.50;;;15.70;50.40;;;;;;5001563;28;20473;-44
2021/03/24 10:09:34;;;;;;;31.23;20.80;;;15.90;49.80;;;;;;5001546;28;20466;-44
2021/03/24 10:12:25;;;;;;;31.87;21.27;;;16.10;49.20;;;;;;5000118;28;20461;-45
2021/03/24 10:15:16;;;;;;;28.83;21.77;;;16.20;49.40;;;;;;5000135;28;20493;-44
2021/03/24 10:17:53;;;;;;;30.03;19.80;;;16.30;49.10;;;;;;4985721;28;20552;-44
2021/03/24 10:20:55;;;;;;;28.73;21.37;;;16.60;48.60;;;;;;4985919;28;20465;-44
2021/03/24 10:23:27;;;;;;;27.97;20.50;;;16.80;47.50;;;;;;5001555;28;20496;-45
2021/03/24 10:26:06;;;;;;;29.30;20.17;;;16.90;47.90;;;;;;4983916;28;20544;-45
2021/03/24 10:28:47;;;;;;;28.33;21.80;;;17.20;47.80;;;;;;4984862;28;20485;-44
2021/03/24 10:31:22;;;;;;;25.17;19.80;;;17.50;46.80;;;;;;5003728;28;20449;-44
2021/03/24 10:33:56;;;;;;;27.43;20.17;;;17.80;46.30;;;;;;4989551;28;20457;-44
2021/03/24 10:36:32;;;;;;;31.10;22.10;;;17.90;46.50;;;;;;5002643;28;20892;-44
2021/03/24 10:39:21;;;;;;;33.60;20.80;;;18.10;46.00;;;;;;5003456;28;20456;-44
2021/03/24 10:42:03;;;;;;;29.43;21.33;;;18.30;45.60;;;;;;4988029;28;20493;-44
2021/03/24 10:44:56;;;;;;;27.30;20.17;;;18.50;45.20;;;;;;5004286;28;20489;-44
2021/03/24 10:47:51;;;;;;;29.33;21.17;;;18.40;44.90;;;;;;4985218;28;20484;-44
2021/03/24 10:50:41;;;;;;;28.67;22.10;;;18.50;44.80;;;;;;5000874;28;20457;-43
2021/03/24 10:53:22;;;;;;;29.33;21.77;;;18.50;44.90;;;;;;4987947;28;20561;-44
2021/03/24 10:56:27;;;;;;;28.93;21.40;;;18.60;45.10;;;;;;4988068;28;20463;-44
2021/03/24 10:59:30;;;;;;;25.70;20.17;;;18.80;45.20;;;;;;4987777;28;20817;-45
2021/03/24 11:02:18;;;;;;;27.60;20.70;;;19.00;44.50;;;;;;4972502;28;20487;-44
2021/03/24 11:04:48;;;;;;;30.17;21.50;;;19.10;44.10;;;;;;5003406;28;20495;-44
2021/03/24 11:07:22;;;;;;;28.67;22.57;;;19.20;43.80;;;;;;4990329;28;21033;-45
2021/03/24 11:10:10;;;;;;;33.37;23.57;;;19.20;43.90;;;;;;5006476;28;20473;-44
2021/03/24 11:12:41;;;;;;;24.27;20.40;;;19.20;43.70;;;;;;4989082;28;20516;-45
2021/03/24 11:15:20;;;;;;;26.67;22.20;;;19.10;43.80;;;;;;4988869;28;20834;-45
2021/03/24 11:17:55;;;;;;;35.63;23.57;;;18.90;44.40;;;;;;4989055;28;20550;-45
2021/03/24 11:21:01;;;;;;;31.53;21.00;;;18.80;44.00;;;;;;4988159;28;20454;-45
2021/03/24 11:23:44;;;;;;;28.30;20.20;;;18.70;44.40;;;;;;4988684;28;20493;-45
2021/03/24 11:26:35;;;;;;;27.20;21.13;;;18.80;44.30;;;;;;4986916;28;20455;-45
2021/03/24 11:29:07;;;;;;;29.93;22.37;;;18.80;44.60;;;;;;5004093;28;20450;-45
2021/03/24 11:32:06;;;;;;;32.40;22.23;;;18.80;44.50;;;;;;4991746;28;20445;-44
2021/03/24 11:35:16;;;;;;;26.80;21.80;;;18.80;44.60;;;;;;4993289;28;20461;-45
2021/03/24 11:37:46;;;;;;;29.83;20.60;;;18.50;44.90;;;;;;4977630;28;21029;-44
2021/03/24 11:40:28;;;;;;;34.07;22.73;;;18.30;45.00;;;;;;4993882;28;20553;-44
2021/03/24 11:43:06;;;;;;;26.83;20.80;;;18.20;44.50;;;;;;5010477;28;20495;-44
2021/03/24 11:45:38;;;;;;;28.30;20.67;;;17.90;45.30;;;;;;4992311;28;20980;-44
2021/03/24 11:48:23;;;;;;;26.03;20.00;;;17.70;45.40;;;;;;4993595;28;20836;-44
2021/03/24 11:51:11;;;;;;;25.80;19.23;;;17.40;46.10;;;;;;4990116;28;20465;-44
2021/03/24 11:53:54;;;;;;;31.80;22.77;;;17.30;46.20;;;;;;4990566;28;20488;-44
2021/03/24 11:56:45;;;;;;;31.10;21.20;;;17.20;46.20;;;;;;5006399;28;20844;-44
2021/03/24 11:59:25;;;;;;;26.87;20.73;;;17.20;46.70;;;;;;4992248;28;20958;-44
2021/03/24 12:02:00;;;;;;;31.17;21.90;;;17.30;46.60;;;;;;4993495;28;20465;-44
2021/03/24 12:04:30;;;;;;;32.50;20.10;;;17.30;46.60;;;;;;4995105;28;20507;-44
2021/03/24 12:07:02;;;;;;;32.27;22.30;;;17.20;46.40;;;;;;4991450;28;20878;-45
2021/03/24 12:09:31;;;;;;;30.70;22.60;;;17.20;46.60;;;;;;4991180;28;20980;-44
2021/03/24 12:12:09;;;;;;;29.70;22.60;;;17.10;46.80;;;;;;5005838;28;20473;-45
2021/03/24 12:14:37;;;;;;;34.40;24.03;;;17.10;47.20;;;;;;5005364;28;20540;-45
2021/03/24 12:17:34;;;;;;;30.47;22.90;;;17.00;47.30;;;;;;5005039;28;20555;-45
2021/03/24 12:20:15;;;;;;;33.57;22.20;;;16.90;47.70;;;;;;4990255;28;20461;-45
2021/03/24 12:22:54;;;;;;;35.47;24.40;;;16.80;47.40;;;;;;4991454;28;20493;-45
2021/03/24 12:25:29;;;;;;;33.40;22.57;;;16.80;47.30;;;;;;4991971;28;20969;-44
2021/03/24 12:28:00;;;;;;;32.20;21.70;;;16.80;47.10;;;;;;4989102;28;21013;-45
2021/03/24 12:30:29;;;;;;;35.40;23.80;;;16.80;47.70;;;;;;5007997;28;20453;-45
2021/03/24 12:33:13;;;;;;;34.10;22.50;;;16.80;47.50;;;;;;5009986;28;20448;-45
2021/03/24 12:35:45;;;;;;;29.63;22.00;;;16.80;47.80;;;;;;4994287;28;20827;-44
2021/03/24 12:38:20;;;;;;;32.67;22.43;;;16.80;47.50;;;;;;4994391;28;20457;-44
2021/03/24 12:41:14;;;;;;;31.57;21.63;;;16.80;47.70;;;;;;4995079;28;20466;-44
2021/03/24 12:43:43;;;;;;;33.27;21.90;;;16.70;47.10;;;;;;4990188;28;20524;-44
2021/03/24 12:46:19;;;;;;;27.80;20.50;;;16.70;47.90;;;;;;4992523;28;20512;-45
2021/03/24 12:48:57;;;;;;;36.33;23.30;;;16.70;47.40;;;;;;4988727;28;20723;-44
2021/03/24 12:51:46;;;;;;;37.23;24.53;;;16.60;47.10;;;;;;4988879;28;20899;-44
2021/03/24 12:54:15;;;;;;;37.13;22.97;;;16.60;47.50;;;;;;4986117;28;21560;-45
2021/03/24 12:57:18;;;;;;;34.20;21.70;;;16.70;47.50;;;;;;5004522;28;20459;-44
2021/03/24 12:59:46;;;;;;;33.77;20.47;;;16.80;47.70;;;;;;5005166;28;20456;-44
2021/03/24 13:02:44;;;;;;;40.17;24.07;;;16.90;47.40;;;;;;4990374;28;20461;-44
2021/03/24 13:05:38;;;;;;;30.77;21.63;;;17.10;47.00;;;;;;4990536;28;20473;-45
2021/03/24 13:08:11;;;;;;;29.00;19.40;;;17.20;46.50;;;;;;4991893;28;20457;-44
2021/03/24 13:10:56;;;;;;;31.30;20.63;;;17.10;46.40;;;;;;5006336;28;20487;-44
2021/03/24 13:14:00;;;;;;;31.40;21.63;;;17.10;46.70;;;;;;4993763;28;20454;-44
2021/03/24 13:16:46;;;;;;;34.90;22.63;;;17.30;46.50;;;;;;4991496;28;21133;-45
2021/03/24 13:19:29;;;;;;;36.90;24.80;;;17.40;46.30;;;;;;4986008;28;20475;-44
2021/03/24 13:22:31;;;;;;;35.50;23.00;;;17.40;46.30;;;;;;4992413;28;20970;-45
2021/03/24 13:25:07;;;;;;;31.87;21.70;;;17.50;45.80;;;;;;5005710;28;20808;-44
2021/03/24 13:27:55;;;;;;;30.67;20.70;;;17.50;45.40;;;;;;4990764;28;20453;-45
2021/03/24 13:30:21;;;;;;;29.47;21.20;;;17.50;45.90;;;;;;4992572;28;20788;-45
2021/03/24 13:32:49;;;;;;;33.10;22.00;;;17.40;46.20;;;;;;4993077;28;20493;-45
2021/03/24 13:35:18;;;;;;;31.80;21.17;;;17.40;46.10;;;;;;4994584;28;20450;-44